createdAt,value
2019-06-01T00:00:13.940Z,4.70
2019-06-01T00:02:55.316Z,5.03
2019-06-01T00:05:22.613Z,4.60
2019-06-01T00:07:56.037Z,4.20
2019-06-01T00:10:28.489Z,5.10
2019-06-01T00:13:00.633Z,5.17
2019-06-01T00:15:32.982Z,4.20
2019-06-01T00:18:06.361Z,4.50
2019-06-01T00:20:44.431Z,5.43
2019-06-01T00:23:17.033Z,4.70
2019-06-01T00:25:51.406Z,4.63
2019-06-01T00:28:24.542Z,5.13
2019-06-01T00:30:56.793Z,4.53
2019-06-01T00:33:29.258Z,5.13
2019-06-01T00:36:01.689Z,5.20
2019-06-01T00:38:35.154Z,5.00
2019-06-01T00:41:08.201Z,5.10
2019-06-01T00:43:40.466Z,4.77
2019-06-01T00:46:12.897Z,4.97
2019-06-01T00:48:52.126Z,6.17
2019-06-01T00:51:25.461Z,5.60
2019-06-01T00:53:58.878Z,5.23
2019-06-01T00:56:37.088Z,5.23
2019-06-01T00:59:09.369Z,5.20
2019-06-01T01:01:43.761Z,5.50
2019-06-01T01:04:17.116Z,5.30
2019-06-01T01:07:00.183Z,6.30
2019-06-01T01:09:32.449Z,6.73
2019-06-01T01:12:04.644Z,6.23
2019-06-01T01:14:38.874Z,5.77
2019-06-01T01:17:11.318Z,6.60
2019-06-01T01:19:45.612Z,6.10
2019-06-01T01:22:20.066Z,6.17
2019-06-01T01:24:56.553Z,6.10
2019-06-01T01:27:28.807Z,6.93
2019-06-01T01:30:00.942Z,7.13
2019-06-01T01:32:32.957Z,6.40
2019-06-01T01:35:07.950Z,6.43
2019-06-01T01:37:40.398Z,6.10
2019-06-01T01:40:12.993Z,7.00
2019-06-01T01:42:48.781Z,6.80
2019-06-01T01:45:21.998Z,5.83
2019-06-01T01:48:04.966Z,6.87
2019-06-01T01:50:39.208Z,6.83
2019-06-01T01:53:11.644Z,6.67
2019-06-01T01:55:46.015Z,6.87
2019-06-01T01:58:19.052Z,6.30
2019-06-01T02:00:54.552Z,6.00
2019-06-01T02:03:26.794Z,6.43
2019-06-01T02:06:00.206Z,6.17
2019-06-01T02:08:32.321Z,5.73
2019-06-01T02:11:05.618Z,6.50
2019-06-01T02:13:39.758Z,6.07
2019-06-01T02:16:12.998Z,6.50
2019-06-01T02:18:45.128Z,6.03
2019-06-01T02:21:17.105Z,6.70
2019-06-01T02:23:49.035Z,7.33
2019-06-01T02:26:22.218Z,6.40
2019-06-01T02:28:57.390Z,6.70
2019-06-01T02:31:41.603Z,6.63
2019-06-01T02:34:07.406Z,6.60
2019-06-01T02:36:44.067Z,6.13
2019-06-01T02:39:16.389Z,6.20
2019-06-01T02:41:50.299Z,6.00
2019-06-01T02:44:24.189Z,5.70
2019-06-01T02:46:59.528Z,6.53
2019-06-01T02:49:32.219Z,6.40
2019-06-01T02:52:05.507Z,5.93
2019-06-01T02:54:38.598Z,6.00
2019-06-01T02:57:11.514Z,6.37
2019-06-01T02:59:43.779Z,6.20
2019-06-01T03:02:17.994Z,6.63
2019-06-01T03:04:50.638Z,5.80
2019-06-01T03:07:27.502Z,5.60
2019-06-01T03:10:03.108Z,6.70
2019-06-01T03:12:47.216Z,5.77
2019-06-01T03:15:19.239Z,6.07
2019-06-01T03:17:54.474Z,7.17
2019-06-01T03:20:28.518Z,6.13
2019-06-01T03:23:01.772Z,5.93
2019-06-01T03:25:35.942Z,6.27
2019-06-01T03:28:14.634Z,5.63
2019-06-01T03:30:46.919Z,5.77
2019-06-01T03:33:19.435Z,5.93
2019-06-01T03:35:53.846Z,5.67
2019-06-01T03:38:29.086Z,6.20
2019-06-01T03:41:02.363Z,5.80
2019-06-01T03:43:34.271Z,5.90
2019-06-01T03:46:08.759Z,5.67
2019-06-01T03:48:40.986Z,5.57
2019-06-01T03:51:13.392Z,6.87
2019-06-01T03:53:45.510Z,5.70
2019-06-01T03:56:18.422Z,5.70
2019-06-01T03:58:56.391Z,6.80
2019-06-01T04:01:28.642Z,6.70
2019-06-01T04:04:00.997Z,5.90
2019-06-01T04:06:33.354Z,6.90
2019-06-01T04:09:09.703Z,6.83
2019-06-01T04:11:41.842Z,6.17
2019-06-01T04:14:14.082Z,6.40
2019-06-01T04:16:46.828Z,6.57
2019-06-01T04:19:20.228Z,7.53
2019-06-01T04:21:52.730Z,7.30
2019-06-01T04:24:28.161Z,8.23
2019-06-01T04:27:02.082Z,8.10
2019-06-01T04:29:34.318Z,7.77
2019-06-01T04:32:06.554Z,7.87
2019-06-01T04:34:38.818Z,7.40
2019-06-01T04:37:13.358Z,7.30
2019-06-01T04:39:45.589Z,8.90
2019-06-01T04:42:17.518Z,8.00
2019-06-01T04:44:49.458Z,8.90
2019-06-01T04:47:22.363Z,8.00
2019-06-01T04:49:54.310Z,8.90
2019-06-01T04:52:26.302Z,8.40
2019-06-01T04:54:58.263Z,9.87
2019-06-01T04:57:32.442Z,8.30
2019-06-01T05:00:21.617Z,7.63
2019-06-01T05:02:42.222Z,8.57
2019-06-01T05:05:15.477Z,8.57
2019-06-01T05:07:48.131Z,8.73
2019-06-01T05:10:20.571Z,9.20
2019-06-01T05:12:53.062Z,9.43
2019-06-01T05:15:25.183Z,9.43
2019-06-01T05:17:57.471Z,10.20
2019-06-01T05:20:29.924Z,9.47
2019-06-01T05:23:03.479Z,8.37
2019-06-01T05:25:37.029Z,7.80
2019-06-01T05:28:09.487Z,7.20
2019-06-01T05:30:41.685Z,6.57
2019-06-01T05:33:29.502Z,6.83
2019-06-01T05:35:48.066Z,6.23
2019-06-01T05:38:20.934Z,5.50
2019-06-01T05:40:54.734Z,4.20
2019-06-01T05:43:27.358Z,4.10
2019-06-01T05:45:59.478Z,3.50
2019-06-01T05:48:31.794Z,3.77
2019-06-01T05:51:04.230Z,3.77
2019-06-01T05:53:36.366Z,3.80
2019-06-01T05:56:08.697Z,4.37
2019-06-01T05:58:40.842Z,3.43
2019-06-01T06:01:14.698Z,3.73
2019-06-01T06:03:47.434Z,4.37
2019-06-01T06:06:20.025Z,3.80
2019-06-01T06:08:52.523Z,3.57
2019-06-01T06:11:26.129Z,3.00
2019-06-01T06:13:58.554Z,3.57
2019-06-01T06:16:30.991Z,3.40
2019-06-01T06:19:04.579Z,3.03
2019-06-01T06:21:37.100Z,2.93
2019-06-01T06:24:09.346Z,3.23
2019-06-01T06:26:41.946Z,3.03
2019-06-01T06:29:14.770Z,2.47
2019-06-01T06:31:47.390Z,2.70
2019-06-01T06:34:19.962Z,3.33
2019-06-01T06:36:54.494Z,2.83
2019-06-01T06:39:28.040Z,2.37
2019-06-01T06:42:00.544Z,2.53
2019-06-01T06:44:33.031Z,2.50
2019-06-01T06:47:05.213Z,2.70
2019-06-01T06:49:37.682Z,2.60
2019-06-01T06:52:11.224Z,2.00
2019-06-01T06:54:43.667Z,2.33
2019-06-01T06:57:16.167Z,1.90
2019-06-01T06:59:48.687Z,2.23
2019-06-01T07:02:21.290Z,2.43
2019-06-01T07:04:53.555Z,2.20
2019-06-01T07:07:25.892Z,2.07
2019-06-01T07:09:58.402Z,2.20
2019-06-01T07:12:31.995Z,1.83
2019-06-01T07:15:05.736Z,1.93
2019-06-01T07:17:38.257Z,2.17
2019-06-01T07:20:11.201Z,1.90
2019-06-01T07:22:43.456Z,2.00
2019-06-01T07:25:15.811Z,1.70
2019-06-01T07:27:48.298Z,2.20
2019-06-01T07:30:22.224Z,1.77
2019-06-01T07:32:55.017Z,1.50
2019-06-01T07:35:28.400Z,1.60
2019-06-01T07:38:00.830Z,1.50
2019-06-01T07:40:33.310Z,1.40
2019-06-01T07:43:06.755Z,1.70
2019-06-01T07:45:39.327Z,1.70
2019-06-01T07:48:11.474Z,1.33
2019-06-01T07:50:43.916Z,1.30
2019-06-01T07:53:16.495Z,1.50
2019-06-01T07:55:49.023Z,1.00
2019-06-01T07:58:22.397Z,1.30
2019-06-01T08:00:54.478Z,1.40
2019-06-01T08:03:31.137Z,1.50
2019-06-01T08:06:02.018Z,1.87
2019-06-01T08:08:35.448Z,1.50
2019-06-01T08:11:07.995Z,1.43
2019-06-01T08:13:41.207Z,1.33
2019-06-01T08:16:14.381Z,1.20
2019-06-01T08:18:46.806Z,1.50
2019-06-01T08:21:19.263Z,1.80
2019-06-01T08:23:52.960Z,1.57
2019-06-01T08:26:26.488Z,1.50
2019-06-01T08:28:58.723Z,1.10
2019-06-01T08:31:32.220Z,1.23
2019-06-01T08:34:05.359Z,0.83
2019-06-01T08:36:38.267Z,1.40
2019-06-01T08:39:10.777Z,1.37
2019-06-01T08:41:43.227Z,1.33
2019-06-01T08:44:15.751Z,1.20
2019-06-01T08:46:48.915Z,1.30
2019-06-01T08:49:21.208Z,1.70
2019-06-01T08:51:53.671Z,1.20
2019-06-01T08:54:28.168Z,1.27
2019-06-01T08:57:00.871Z,0.80
2019-06-01T08:59:34.591Z,1.00
2019-06-01T09:02:07.671Z,1.00
2019-06-01T09:04:40.110Z,1.10
2019-06-01T09:07:12.572Z,1.17
2019-06-01T09:09:45.988Z,0.90
2019-06-01T09:12:18.464Z,1.27
2019-06-01T09:14:50.879Z,0.80
2019-06-01T09:17:23.328Z,1.17
2019-06-01T09:19:55.764Z,1.00
2019-06-01T09:22:27.900Z,1.10
2019-06-01T09:25:00.157Z,0.90
2019-06-01T09:27:34.236Z,1.10
2019-06-01T09:30:10.772Z,0.93
2019-06-01T09:32:43.259Z,0.90
2019-06-01T09:35:16.865Z,1.30
2019-06-01T09:37:53.047Z,1.43
2019-06-01T09:40:27.285Z,1.30
2019-06-01T09:42:59.648Z,1.33
2019-06-01T09:45:34.560Z,1.33
2019-06-01T09:48:08.961Z,1.23
2019-06-01T09:50:43.219Z,1.23
2019-06-01T09:53:16.295Z,0.80
2019-06-01T09:55:48.548Z,1.00
2019-06-01T09:58:21.084Z,1.10
2019-06-01T10:00:56.852Z,1.07
2019-06-01T10:03:30.256Z,1.10
2019-06-01T10:06:02.756Z,0.97
2019-06-01T10:08:36.124Z,0.93
2019-06-01T10:11:08.759Z,1.20
2019-06-01T10:13:42.573Z,0.90
2019-06-01T10:16:16.064Z,1.20
2019-06-01T10:18:48.198Z,1.20
2019-06-01T10:21:20.464Z,1.20
2019-06-01T10:23:52.931Z,0.80
2019-06-01T10:26:25.043Z,1.10
2019-06-01T10:28:57.307Z,1.00
2019-06-01T10:31:30.499Z,1.17
2019-06-01T10:34:04.756Z,1.00
2019-06-01T10:36:38.063Z,0.90
2019-06-01T10:39:10.767Z,0.87
2019-06-01T10:41:43.212Z,1.00
2019-06-01T10:44:15.647Z,1.00
2019-06-01T10:46:47.847Z,0.97
2019-06-01T10:49:22.066Z,1.03
2019-06-01T10:51:54.487Z,0.80
2019-06-01T10:54:26.954Z,1.10
2019-06-01T10:56:59.680Z,1.20
2019-06-01T10:59:34.280Z,1.40
2019-06-01T11:02:06.749Z,1.10
2019-06-01T11:04:43.469Z,1.00
2019-06-01T11:07:15.987Z,0.90
2019-06-01T11:09:48.117Z,1.00
2019-06-01T11:12:20.374Z,1.00
2019-06-01T11:14:52.839Z,0.83
2019-06-01T11:17:25.267Z,1.00
2019-06-01T11:19:57.401Z,1.00
2019-06-01T11:22:29.939Z,1.10
2019-06-01T11:25:02.713Z,1.00
2019-06-01T11:27:35.669Z,1.13
2019-06-01T11:30:12.851Z,1.00
2019-06-01T11:32:45.312Z,1.00
2019-06-01T11:35:18.485Z,0.93
2019-06-01T11:37:50.571Z,0.87
2019-06-01T11:40:22.817Z,1.60
2019-06-01T11:42:54.956Z,1.07
2019-06-01T11:45:28.828Z,1.50
2019-06-01T11:48:01.263Z,1.47
2019-06-01T11:50:35.138Z,1.40
2019-06-01T11:53:07.624Z,2.17
2019-06-01T11:55:41.355Z,1.70
2019-06-01T11:58:13.718Z,1.50
2019-06-01T12:00:46.237Z,1.00
2019-06-01T12:03:18.710Z,1.47
2019-06-01T12:05:51.261Z,1.20
2019-06-01T12:08:23.716Z,1.60
2019-06-01T12:10:56.173Z,2.00
2019-06-01T12:13:29.560Z,1.50
2019-06-01T12:16:01.761Z,1.13
2019-06-01T12:18:34.100Z,1.13
2019-06-01T12:21:06.976Z,1.00
2019-06-01T12:23:39.158Z,1.00
2019-06-01T12:26:11.211Z,0.90
2019-06-01T12:28:43.830Z,1.20
2019-06-01T12:31:16.448Z,0.80
2019-06-01T12:33:48.887Z,0.90
2019-06-01T12:36:21.517Z,0.80
2019-06-01T12:38:54.006Z,0.80
2019-06-01T12:41:27.261Z,1.00
2019-06-01T12:44:08.969Z,0.97
2019-06-01T12:46:47.254Z,1.00
2019-06-01T12:49:20.343Z,0.83
2019-06-01T12:51:53.119Z,0.70
2019-06-01T12:54:25.981Z,0.90
2019-06-01T12:56:58.324Z,0.93
2019-06-01T12:59:31.593Z,0.80
2019-06-01T13:02:04.035Z,1.23
2019-06-01T13:04:36.817Z,1.20
2019-06-01T13:07:08.939Z,1.00
2019-06-01T13:09:41.993Z,0.90
2019-06-01T13:12:14.608Z,0.80
2019-06-01T13:14:49.293Z,1.00
2019-06-01T13:17:21.713Z,1.00
2019-06-01T13:19:54.638Z,1.53
2019-06-01T13:22:26.928Z,1.00
2019-06-01T13:24:59.132Z,0.93
2019-06-01T13:27:31.268Z,1.40
2019-06-01T13:30:05.339Z,1.07
2019-06-01T13:32:37.576Z,1.40
2019-06-01T13:35:09.640Z,1.50
2019-06-01T13:37:42.440Z,1.20
2019-06-01T13:40:14.747Z,1.00
2019-06-01T13:42:47.005Z,0.90
2019-06-01T13:45:19.281Z,1.43
2019-06-01T13:47:51.873Z,1.20
2019-06-01T13:50:25.136Z,1.30
2019-06-01T13:52:57.257Z,1.10
2019-06-01T13:55:30.223Z,1.20
2019-06-01T13:58:02.514Z,1.63
2019-06-01T14:00:34.608Z,1.40
2019-06-01T14:03:07.268Z,1.17
2019-06-01T14:05:40.011Z,1.23
2019-06-01T14:08:28.053Z,1.17
2019-06-01T14:10:47.122Z,1.30
2019-06-01T14:13:19.252Z,1.10
2019-06-01T14:15:53.511Z,1.23
2019-06-01T14:18:25.617Z,0.77
2019-06-01T14:21:00.820Z,1.00
2019-06-01T14:23:33.016Z,0.90
2019-06-01T14:26:05.626Z,0.90
2019-06-01T14:28:39.108Z,1.10
2019-06-01T14:31:12.308Z,0.90
2019-06-01T14:33:44.652Z,1.10
2019-06-01T14:36:20.308Z,0.90
2019-06-01T14:38:54.683Z,1.00
2019-06-01T14:41:26.928Z,1.20
2019-06-01T14:43:59.359Z,1.00
2019-06-01T14:46:33.776Z,1.10
2019-06-01T14:49:06.629Z,1.00
2019-06-01T14:51:40.044Z,0.97
2019-06-01T14:54:12.509Z,1.50
2019-06-01T14:56:45.040Z,1.60
2019-06-01T14:59:17.712Z,0.90
2019-06-01T15:01:50.260Z,1.30
2019-06-01T15:04:23.376Z,0.90
2019-06-01T15:06:56.490Z,1.03
2019-06-01T15:09:29.052Z,1.50
2019-06-01T15:12:01.512Z,0.90
2019-06-01T15:14:33.700Z,1.00
2019-06-01T15:17:06.004Z,1.23
2019-06-01T15:19:38.402Z,0.90
2019-06-01T15:22:11.088Z,0.90
2019-06-01T15:24:44.310Z,0.90
2019-06-01T15:27:17.796Z,1.47
2019-06-01T15:29:50.707Z,0.90
2019-06-01T15:32:26.479Z,1.00
2019-06-01T15:35:00.013Z,1.20
2019-06-01T15:37:33.511Z,1.37
2019-06-01T15:40:11.010Z,2.30
2019-06-01T15:42:43.272Z,1.07
2019-06-01T15:45:16.773Z,3.03
2019-06-01T15:47:49.228Z,1.23
2019-06-01T15:50:21.725Z,2.50
2019-06-01T15:52:54.967Z,3.53
2019-06-01T15:55:30.939Z,1.10
2019-06-01T15:58:03.493Z,1.07
2019-06-01T16:00:36.004Z,1.33
2019-06-01T16:03:11.336Z,1.77
2019-06-01T16:05:43.783Z,1.10
2019-06-01T16:08:16.220Z,0.77
2019-06-01T16:10:48.656Z,0.80
2019-06-01T16:13:21.132Z,0.90
2019-06-01T16:15:53.353Z,1.00
2019-06-01T16:18:25.258Z,0.90
2019-06-01T16:20:58.011Z,1.17
2019-06-01T16:23:46.200Z,0.80
2019-06-01T16:26:15.381Z,0.90
2019-06-01T16:28:39.044Z,0.90
2019-06-01T16:31:11.168Z,1.47
2019-06-01T16:33:43.442Z,1.53
2019-06-01T16:36:15.864Z,1.20
2019-06-01T16:38:48.317Z,1.33
2019-06-01T16:41:21.690Z,1.33
2019-06-01T16:43:55.384Z,1.60
2019-06-01T16:46:30.038Z,1.20
2019-06-01T16:49:03.638Z,1.30
2019-06-01T16:52:01.146Z,1.20
2019-06-01T16:54:33.744Z,1.30
2019-06-01T16:57:07.401Z,1.40
2019-06-01T16:59:39.960Z,1.70
2019-06-01T17:02:12.420Z,2.00
2019-06-01T17:04:47.765Z,2.40
2019-06-01T17:07:19.957Z,1.73
2019-06-01T17:09:52.099Z,1.80
2019-06-01T17:12:24.061Z,2.10
2019-06-01T17:14:56.796Z,5.63
2019-06-01T17:17:29.356Z,2.00
2019-06-01T17:20:01.482Z,2.60
2019-06-01T17:22:34.805Z,3.40
2019-06-01T17:25:09.088Z,2.63
2019-06-01T17:27:42.187Z,3.53
2019-06-01T17:30:14.124Z,3.17
2019-06-01T17:32:46.136Z,2.43
2019-06-01T17:35:19.501Z,1.80
2019-06-01T17:37:52.076Z,1.40
2019-06-01T17:40:36.746Z,1.47
2019-06-01T17:42:58.764Z,1.20
2019-06-01T17:45:32.192Z,1.40
2019-06-01T17:48:24.288Z,1.63
2019-06-01T17:50:42.692Z,1.50
2019-06-01T17:53:15.916Z,1.50
2019-06-01T17:55:48.381Z,1.57
2019-06-01T17:58:20.808Z,2.07
2019-06-01T18:00:52.946Z,1.63
2019-06-01T18:03:25.268Z,1.77
2019-06-01T18:06:01.625Z,1.40
2019-06-01T18:08:37.245Z,1.70
2019-06-01T18:11:10.544Z,1.87
2019-06-01T18:13:43.277Z,2.30
2019-06-01T18:16:15.772Z,1.97
2019-06-01T18:18:48.226Z,1.70
2019-06-01T18:21:21.751Z,2.17
2019-06-01T18:23:54.322Z,1.93
2019-06-01T18:26:26.849Z,2.10
2019-06-01T18:28:59.273Z,2.10
2019-06-01T18:31:31.404Z,2.10
2019-06-01T18:34:03.401Z,2.67
2019-06-01T18:36:35.340Z,2.27
2019-06-01T18:39:09.560Z,5.03
2019-06-01T18:41:42.131Z,4.50
2019-06-01T18:44:20.661Z,3.07
2019-06-01T18:46:54.097Z,3.13
2019-06-01T18:49:26.541Z,2.80
2019-06-01T18:51:58.669Z,2.40
2019-06-01T18:54:30.610Z,2.40
2019-06-01T18:57:14.166Z,2.17
2019-06-01T18:59:37.085Z,2.60
2019-06-01T19:02:10.425Z,2.97
2019-06-01T19:04:44.673Z,2.83
2019-06-01T19:07:17.137Z,3.30
2019-06-01T19:09:50.218Z,2.97
2019-06-01T19:12:24.403Z,2.90
2019-06-01T19:14:56.885Z,3.00
2019-06-01T19:17:29.504Z,3.27
2019-06-01T19:20:01.629Z,3.10
2019-06-01T19:22:33.590Z,3.47
2019-06-01T19:25:08.621Z,4.00
2019-06-01T19:27:40.740Z,3.90
2019-06-01T19:30:17.114Z,4.07
2019-06-01T19:32:49.325Z,3.10
2019-06-01T19:35:21.573Z,3.70
2019-06-01T19:37:54.373Z,3.80
2019-06-01T19:40:37.118Z,4.03
2019-06-01T19:43:17.560Z,4.50
2019-06-01T19:45:55.883Z,3.60
2019-06-01T19:48:28.349Z,4.00
2019-06-01T19:51:00.810Z,4.70
2019-06-01T19:53:32.959Z,4.13
2019-06-01T19:56:05.870Z,5.13
2019-06-01T19:58:40.845Z,4.20
2019-06-01T20:01:14.190Z,4.30
2019-06-01T20:03:50.289Z,4.50
2019-06-01T20:06:24.737Z,6.97
2019-06-01T20:08:56.924Z,5.53
2019-06-01T20:11:36.217Z,4.97
2019-06-01T20:14:08.512Z,4.03
2019-06-01T20:16:40.969Z,4.90
2019-06-01T20:19:14.025Z,4.23
2019-06-01T20:21:46.319Z,4.30
2019-06-01T20:24:24.201Z,4.70
2019-06-01T20:27:03.785Z,4.47
2019-06-01T20:29:36.629Z,4.30
2019-06-01T20:32:13.880Z,4.50
2019-06-01T20:34:46.193Z,4.27
2019-06-01T20:37:18.653Z,4.47
2019-06-01T20:39:51.109Z,4.30
2019-06-01T20:42:31.733Z,5.37
2019-06-01T20:44:57.769Z,4.60
2019-06-01T20:47:32.133Z,4.93
2019-06-01T20:50:08.819Z,6.10
2019-06-01T20:52:42.213Z,5.30
2019-06-01T20:55:15.541Z,6.30
2019-06-01T20:57:48.613Z,5.63
2019-06-01T21:00:22.225Z,6.27
2019-06-01T21:02:55.406Z,5.80
2019-06-01T21:05:33.361Z,6.50
2019-06-01T21:08:05.803Z,5.83
2019-06-01T21:10:41.734Z,5.30
2019-06-01T21:13:14.161Z,5.23
2019-06-01T21:15:46.424Z,4.70
2019-06-01T21:18:22.781Z,5.20
2019-06-01T21:20:58.621Z,5.30
2019-06-01T21:23:31.861Z,4.20
2019-06-01T21:26:10.811Z,4.17
2019-06-01T21:28:46.125Z,5.50
2019-06-01T21:31:23.230Z,5.00
2019-06-01T21:33:59.431Z,4.50
2019-06-01T21:36:31.693Z,4.43
2019-06-01T21:39:05.569Z,4.53
2019-06-01T21:41:38.718Z,4.30
2019-06-01T21:44:10.925Z,4.33
2019-06-01T21:46:48.445Z,5.40
2019-06-01T21:49:24.054Z,4.93
2019-06-01T21:51:56.270Z,4.80
2019-06-01T21:54:28.593Z,5.33
2019-06-01T21:57:01.134Z,5.00
2019-06-01T21:59:35.593Z,5.40
2019-06-01T22:02:09.238Z,5.13
2019-06-01T22:04:41.689Z,5.07
2019-06-01T22:07:14.537Z,4.97
2019-06-01T22:09:52.717Z,4.57
2019-06-01T22:12:25.742Z,5.03
2019-06-01T22:15:03.901Z,4.73
2019-06-01T22:17:36.642Z,4.30
2019-06-01T22:20:11.599Z,5.10
2019-06-01T22:22:44.037Z,6.77
2019-06-01T22:25:20.170Z,8.07
2019-06-01T22:27:54.134Z,5.50
2019-06-01T22:30:26.596Z,4.80
2019-06-01T22:32:58.910Z,4.30
2019-06-01T22:35:32.429Z,4.60
2019-06-01T22:38:04.974Z,5.10
2019-06-01T22:40:37.518Z,5.40
2019-06-01T22:43:10.022Z,5.93
2019-06-01T22:45:42.578Z,5.60
2019-06-01T22:48:15.023Z,6.20
2019-06-01T22:50:50.949Z,6.10
2019-06-01T22:53:24.092Z,6.40
2019-06-01T22:55:56.499Z,6.43
2019-06-01T22:58:29.642Z,7.13
2019-06-01T23:01:09.726Z,6.77
2019-06-01T23:03:43.593Z,6.40
2019-06-01T23:06:17.552Z,6.37
2019-06-01T23:08:50.069Z,6.67
2019-06-01T23:11:23.021Z,6.50
2019-06-01T23:13:55.621Z,7.00
2019-06-01T23:16:28.125Z,6.80
2019-06-01T23:19:00.313Z,6.37
2019-06-01T23:21:32.253Z,5.97
2019-06-01T23:24:04.623Z,6.83
2019-06-01T23:26:42.990Z,6.30
2019-06-01T23:29:16.769Z,7.00
2019-06-01T23:31:48.926Z,7.27
2019-06-01T23:34:22.453Z,6.27
2019-06-01T23:36:54.794Z,7.40
2019-06-01T23:39:28.710Z,7.23
2019-06-01T23:42:02.326Z,6.57
2019-06-01T23:44:35.246Z,6.80
2019-06-01T23:47:08.770Z,7.30
2019-06-01T23:49:48.616Z,7.50
2019-06-01T23:52:23.545Z,7.83
2019-06-01T23:54:56.841Z,7.33
2019-06-01T23:57:30.056Z,8.10
